THY95Y LTFM-KDEN
Flight info
| Callsign | THY95Y |
|---|---|
| Flight time | N/A |
| Altitude | 36000 |
| Route | TUDBU Q26 ETUBA DCT DEGET DCT PATAK DCT ODNEM DCT ELMEK DCT VEXIL DCT KATCE DCT MIMVA DCT OTBED L60 PENIL M144 BAGSO DCT RESNO/M085F380 DCT 56N020W 56N030W 56N040W 55N050W DCT LOMSI/N0493F400 DCT SPOTE DCT YMO DCT 50N088W DCT FAR DCT GILTE DCT NYTRO AALLE4 |
| Aircraft | A359/H-SDE2E3GHIJ3J4J5LM1ORWXY/LB1D1 |
Departure
| Time | N/A |
|---|---|
| Airport | İstanbul Airport (LTFM) |
Arrival
| Time | 2026-05-04 16:33 |
|---|---|
| Airport | Denver International Airport (KDEN) |
| Time | Latitude | Longitude | Altitude | Speed | Heading |
|---|---|---|---|---|---|
| 2026-05-04 15:47 | 43.27635 | -101.59272 | 37852 ft | 457 kts | 222° |
| 2026-05-04 15:48 | 43.22402 | -101.64246 | 37858 ft | 457 kts | 222° |
| 2026-05-04 15:48 | 43.14539 | -101.71697 | 37859 ft | 457 kts | 222° |
| 2026-05-04 15:49 | 43.09302 | -101.76647 | 37858 ft | 458 kts | 222° |
| 2026-05-04 15:49 | 43.04060 | -101.81592 | 37861 ft | 458 kts | 222° |
| 2026-05-04 15:50 | 42.98843 | -101.86502 | 37866 ft | 458 kts | 222° |
| 2026-05-04 15:50 | 42.93585 | -101.91441 | 37875 ft | 458 kts | 222° |
| 2026-05-04 15:51 | 42.88328 | -101.96368 | 37881 ft | 458 kts | 222° |
| 2026-05-04 15:51 | 42.83077 | -102.01280 | 37892 ft | 458 kts | 221° |
| 2026-05-04 15:52 | 42.77813 | -102.06193 | 37898 ft | 459 kts | 221° |
| 2026-05-04 15:52 | 42.72573 | -102.11073 | 37896 ft | 459 kts | 221° |
| 2026-05-04 15:53 | 42.67291 | -102.15982 | 37888 ft | 459 kts | 221° |
| 2026-05-04 15:53 | 42.62014 | -102.20877 | 37878 ft | 459 kts | 221° |
| 2026-05-04 15:54 | 42.56763 | -102.25737 | 37866 ft | 459 kts | 221° |
| 2026-05-04 15:54 | 42.51470 | -102.30628 | 37847 ft | 459 kts | 221° |
| 2026-05-04 15:55 | 42.46179 | -102.35505 | 37826 ft | 460 kts | 221° |
| 2026-05-04 15:55 | 42.40909 | -102.40352 | 37835 ft | 460 kts | 221° |
| 2026-05-04 15:56 | 42.35620 | -102.45206 | 37822 ft | 460 kts | 221° |
| 2026-05-04 15:56 | 42.30311 | -102.50070 | 37816 ft | 460 kts | 221° |
| 2026-05-04 15:57 | 42.24997 | -102.54927 | 37821 ft | 460 kts | 221° |
| 2026-05-04 15:57 | 42.19692 | -102.59766 | 37832 ft | 460 kts | 221° |
| 2026-05-04 15:58 | 42.15851 | -102.63265 | 37838 ft | 460 kts | 222° |
| 2026-05-04 15:58 | 42.10547 | -102.68086 | 37852 ft | 460 kts | 222° |
| 2026-05-04 15:59 | 42.05237 | -102.72903 | 37854 ft | 460 kts | 222° |
| 2026-05-04 15:59 | 41.99919 | -102.77718 | 37855 ft | 460 kts | 222° |
| 2026-05-04 16:00 | 41.94644 | -102.82483 | 37848 ft | 459 kts | 222° |
| 2026-05-04 16:00 | 41.89332 | -102.87272 | 37825 ft | 459 kts | 222° |
| 2026-05-04 16:01 | 41.84020 | -102.92051 | 37803 ft | 459 kts | 222° |
| 2026-05-04 16:01 | 41.78781 | -102.96756 | 37784 ft | 459 kts | 222° |
| 2026-05-04 16:02 | 41.73447 | -103.01537 | 37735 ft | 458 kts | 222° |
| 2026-05-04 16:03 | 41.65492 | -103.08646 | 37728 ft | 457 kts | 222° |
| 2026-05-04 16:03 | 41.60184 | -103.13306 | 37689 ft | 460 kts | 218° |
| 2026-05-04 16:03 | 41.57211 | -103.15059 | 37713 ft | 475 kts | 205° |
| 2026-05-04 16:04 | 41.53921 | -103.15873 | 37715 ft | 488 kts | 192° |
| 2026-05-04 16:04 | 41.43734 | -103.16194 | 37719 ft | 488 kts | 190° |
| 2026-05-04 16:05 | 41.36938 | -103.16415 | 37745 ft | 487 kts | 191° |
| 2026-05-04 16:06 | 41.26767 | -103.16791 | 37639 ft | 483 kts | 191° |
| 2026-05-04 16:06 | 41.17832 | -103.17124 | 34858 ft | 478 kts | 189° |
| 2026-05-04 16:07 | 41.13409 | -103.17294 | 32778 ft | 478 kts | 188° |
| 2026-05-04 16:07 | 41.04012 | -103.18575 | 31694 ft | 432 kts | 206° |
| 2026-05-04 16:08 | 41.01325 | -103.20185 | 31338 ft | 419 kts | 217° |
| 2026-05-04 16:08 | 40.94366 | -103.27007 | 30145 ft | 413 kts | 224° |
| 2026-05-04 16:09 | 40.89829 | -103.31586 | 29318 ft | 407 kts | 224° |
| 2026-05-04 16:09 | 40.85345 | -103.36089 | 28563 ft | 402 kts | 224° |
| 2026-05-04 16:10 | 40.80899 | -103.40544 | 27816 ft | 399 kts | 224° |
| 2026-05-04 16:11 | 40.74292 | -103.47139 | 26708 ft | 395 kts | 223° |
| 2026-05-04 16:11 | 40.72099 | -103.49316 | 26341 ft | 393 kts | 223° |
| 2026-05-04 16:12 | 40.65610 | -103.55758 | 25234 ft | 389 kts | 223° |
| 2026-05-04 16:12 | 40.59159 | -103.62194 | 24136 ft | 386 kts | 223° |
| 2026-05-04 16:13 | 40.54909 | -103.66438 | 23435 ft | 384 kts | 223° |
| 2026-05-04 16:13 | 40.50655 | -103.70678 | 22683 ft | 381 kts | 223° |
| 2026-05-04 16:14 | 40.46495 | -103.74876 | 21997 ft | 376 kts | 225° |
| 2026-05-04 16:14 | 40.43418 | -103.80204 | 21391 ft | 364 kts | 244° |
| 2026-05-04 16:15 | 40.39526 | -103.88778 | 20557 ft | 363 kts | 243° |
| 2026-05-04 16:16 | 40.36928 | -103.94434 | 20049 ft | 356 kts | 243° |
| 2026-05-04 16:16 | 40.33233 | -104.02426 | 19359 ft | 330 kts | 243° |
| 2026-05-04 16:17 | 40.30517 | -104.07099 | 18756 ft | 327 kts | 226° |
| 2026-05-04 16:18 | 40.25254 | -104.12712 | 17745 ft | 322 kts | 224° |
| 2026-05-04 16:18 | 40.23517 | -104.14563 | 17447 ft | 322 kts | 224° |
| 2026-05-04 16:19 | 40.18332 | -104.20096 | 16577 ft | 319 kts | 224° |
| 2026-05-04 16:19 | 40.14924 | -104.23735 | 16022 ft | 317 kts | 224° |
| 2026-05-04 16:20 | 40.09809 | -104.29183 | 15279 ft | 315 kts | 224° |
| 2026-05-04 16:20 | 40.06581 | -104.32615 | 14778 ft | 313 kts | 224° |
| 2026-05-04 16:21 | 40.02111 | -104.37360 | 14089 ft | 311 kts | 223° |
| 2026-05-04 16:22 | 39.98750 | -104.40918 | 13565 ft | 310 kts | 223° |
| 2026-05-04 16:22 | 39.93826 | -104.46135 | 12976 ft | 293 kts | 223° |
| 2026-05-04 16:23 | 39.88851 | -104.50085 | 12370 ft | 279 kts | 189° |
| 2026-05-04 16:24 | 39.81305 | -104.50224 | 11384 ft | 264 kts | 184° |
| 2026-05-04 16:25 | 39.77662 | -104.50266 | 10949 ft | 260 kts | 184° |
| 2026-05-04 16:26 | 39.70306 | -104.50266 | 9499 ft | 270 kts | 184° |
| 2026-05-04 16:26 | 39.64667 | -104.50298 | 8259 ft | 268 kts | 186° |
| 2026-05-04 16:27 | 39.61612 | -104.52519 | 7477 ft | 257 kts | 244° |
| 2026-05-04 16:28 | 39.60816 | -104.59083 | 6939 ft | 227 kts | 269° |
| 2026-05-04 16:28 | 39.62166 | -104.64353 | 6994 ft | 227 kts | 340° |
| 2026-05-04 16:29 | 39.68660 | -104.64321 | 7007 ft | 237 kts | 359° |
| 2026-05-04 16:30 | 39.73537 | -104.64245 | 7005 ft | 219 kts | 359° |
| 2026-05-04 16:31 | 39.76410 | -104.64237 | 6735 ft | 198 kts | 358° |
| 2026-05-04 16:31 | 39.80141 | -104.64200 | 6063 ft | 159 kts | 358° |
| 2026-05-04 16:32 | 39.83287 | -104.64156 | 5406 ft | 150 kts | 356° |
| 2026-05-04 16:33 | 39.84915 | -104.64145 | 5368 ft | 62 kts | 0° |
| 2026-05-04 16:33 | 39.85553 | -104.64196 | 5371 ft | 24 kts | 335° |
| 2026-05-04 16:34 | 39.85788 | -104.64360 | 5370 ft | 21 kts | 332° |
| 2026-05-04 16:34 | 39.85914 | -104.64452 | 5369 ft | 21 kts | 330° |
| 2026-05-04 16:35 | 39.86273 | -104.64713 | 5369 ft | 19 kts | 332° |
| 2026-05-04 16:35 | 39.86494 | -104.65051 | 5369 ft | 17 kts | 271° |
| 2026-05-04 16:36 | 39.86497 | -104.65236 | 5369 ft | 24 kts | 269° |
| 2026-05-04 16:36 | 39.86499 | -104.65664 | 5369 ft | 20 kts | 270° |
| 2026-05-04 16:37 | 39.86502 | -104.65885 | 5370 ft | 26 kts | 271° |
| 2026-05-04 16:37 | 39.86486 | -104.66185 | 5370 ft | 32 kts | 233° |
| 2026-05-04 16:37 | 39.86054 | -104.66230 | 5370 ft | 37 kts | 180° |
| 2026-05-04 16:38 | 39.85616 | -104.66247 | 5370 ft | 16 kts | 200° |
| 2026-05-04 16:39 | 39.85586 | -104.66593 | 5372 ft | 14 kts | 270° |
| 2026-05-04 16:39 | 39.85588 | -104.66860 | 5369 ft | 15 kts | 269° |
| 2026-05-04 16:40 | 39.85587 | -104.67146 | 5372 ft | 16 kts | 272° |
| 2026-05-04 16:40 | 39.85527 | -104.67311 | 5370 ft | 9 kts | 180° |
| 2026-05-04 16:41 | 39.85442 | -104.67311 | 5370 ft | 2 kts | 180° |
| 2026-05-04 16:41 | 39.85439 | -104.67311 | 5370 ft | 0 kts | 179° |